Time;durP1;ratioP1;P1;durP2;ratioP2;P2;SDS_P1;SDS_P2;PMS_P1;PMS_P2;Temp;Humidity;BMP_temperature;BMP_pressure;BME280_temperature;BME280_humidity;BME280_pressure;Samples;Min_cycle;Max_cycle;Signal;HPM_P1;HPM_P2
2023/03/09 00:00:17;;;;;;;;;;;11.30;79.80;;;;;;5072173;28;20307;-91
2023/03/09 00:02:42;;;;;;;;;;;11.30;79.40;;;;;;5074279;28;19944;-90
2023/03/09 00:05:11;;;;;;;;;;;11.30;79.50;;;;;;5073922;28;20045;-90
2023/03/09 00:07:36;;;;;;;;;;;11.30;79.60;;;;;;5073260;28;19943;-90
2023/03/09 00:10:03;;;;;;;;;;;11.30;79.70;;;;;;5073908;28;19955;-90
2023/03/09 00:12:28;;;;;;;;;;;11.30;79.60;;;;;;5074997;28;19990;-90
2023/03/09 00:14:54;;;;;;;;;;;11.30;79.70;;;;;;5073172;28;19943;-91
2023/03/09 00:17:20;;;;;;;;;;;11.30;80.90;;;;;;5073768;28;20005;-90
2023/03/09 00:19:45;;;;;;;;;;;11.30;81.20;;;;;;5072812;28;20331;-90
2023/03/09 00:22:11;;;;;;;;;;;11.20;81.60;;;;;;5074834;28;19943;-90
2023/03/09 00:24:45;;;;;;;;;;;11.20;81.80;;;;;;5073627;28;19961;-90
2023/03/09 00:27:11;;;;;;;;;;;11.10;81.60;;;;;;5074623;28;19949;-91
2023/03/09 00:29:36;;;;;;;;;;;11.10;81.60;;;;;;5074449;28;20581;-90
2023/03/09 00:32:02;;;;;;;;;;;11.10;81.60;;;;;;5074520;28;19945;-91
2023/03/09 00:34:27;;;;;;;;;;;11.20;81.40;;;;;;5072813;28;19962;-90
2023/03/09 00:36:53;;;;;;;;;;;11.10;80.50;;;;;;5073458;28;19947;-90
2023/03/09 00:39:19;;;;;;;;;;;11.10;80.20;;;;;;5072464;28;20418;-90
2023/03/09 00:41:45;;;;;;;;;;;11.20;79.90;;;;;;5073090;28;20323;-90
2023/03/09 00:44:11;;;;;;;;;;;11.10;79.80;;;;;;5074238;28;19944;-91
2023/03/09 00:46:37;;;;;;;;;;;11.20;80.10;;;;;;5074271;28;19938;-90
2023/03/09 00:49:05;;;;;;;;;;;11.20;79.60;;;;;;5073906;28;19949;-90
2023/03/09 00:51:32;;;;;;;;;;;11.10;79.50;;;;;;5055996;28;20034;-90
2023/03/09 00:53:57;;;;;;;;;;;11.10;79.50;;;;;;5074047;28;20425;-90
2023/03/09 00:56:27;;;;;;;;;;;11.10;79.60;;;;;;5073992;28;19984;-90
2023/03/09 00:58:53;;;;;;;;;;;11.00;79.70;;;;;;5072537;28;19950;-90
2023/03/09 01:01:19;;;;;;;;;;;11.00;79.80;;;;;;5053767;28;19960;-90
2023/03/09 01:03:45;;;;;;;;;;;10.90;79.80;;;;;;5071688;28;19978;-90
2023/03/09 01:06:11;;;;;;;;;;;10.90;79.70;;;;;;5073058;28;19947;-91
2023/03/09 01:08:37;;;;;;;;;;;10.90;79.80;;;;;;5072025;28;20046;-90
2023/03/09 01:11:10;;;;;;;;;;;10.90;79.80;;;;;;5072700;28;19947;-91
2023/03/09 01:13:36;;;;;;;;;;;11.00;79.70;;;;;;5073579;28;20387;-91
2023/03/09 01:16:02;;;;;;;;;;;11.00;79.60;;;;;;5072107;28;19957;-90
2023/03/09 01:18:27;;;;;;;;;;;10.90;79.70;;;;;;5071571;28;19950;-90
2023/03/09 01:20:53;;;;;;;;;;;11.00;79.70;;;;;;5071882;28;20371;-90
2023/03/09 01:23:18;;;;;;;;;;;11.00;79.70;;;;;;5073646;28;20483;-90
2023/03/09 01:25:44;;;;;;;;;;;11.00;79.80;;;;;;5072400;28;20340;-90
2023/03/09 01:28:10;;;;;;;;;;;10.90;80.00;;;;;;5073385;28;19987;-90
2023/03/09 01:30:35;;;;;;;;;;;10.90;80.30;;;;;;5071226;28;19949;-91
2023/03/09 01:33:01;;;;;;;;;;;10.90;80.30;;;;;;5072437;28;19942;-90
2023/03/09 01:35:26;;;;;;;;;;;10.90;80.50;;;;;;5072498;28;19946;-90
2023/03/09 01:37:52;;;;;;;;;;;10.90;80.60;;;;;;5072655;28;19953;-90
2023/03/09 01:40:19;;;;;;;;;;;10.90;80.60;;;;;;5071178;28;19964;-91
2023/03/09 01:42:53;;;;;;;;;;;10.90;80.60;;;;;;5071154;28;20400;-90
2023/03/09 01:45:18;;;;;;;;;;;10.90;80.60;;;;;;5072447;28;19947;-90
2023/03/09 01:47:45;;;;;;;;;;;11.00;80.50;;;;;;5072237;28;19940;-90
2023/03/09 01:50:10;;;;;;;;;;;10.90;80.60;;;;;;5071422;28;19949;-90
2023/03/09 01:52:36;;;;;;;;;;;10.90;80.70;;;;;;5072250;28;19961;-90
2023/03/09 01:55:02;;;;;;;;;;;10.90;80.90;;;;;;5072315;28;20418;-90
2023/03/09 01:57:53;;;;;;;;;;;10.90;81.00;;;;;;5072946;28;20390;-91
2023/03/09 02:00:20;;;;;;;;;;;10.90;81.20;;;;;;5064191;28;19963;-90
2023/03/09 02:02:50;;;;;;;;;;;10.90;81.30;;;;;;5072063;28;19992;-90
2023/03/09 02:05:19;;;;;;;;;;;10.80;81.50;;;;;;5070380;28;19988;-90
2023/03/09 02:07:47;;;;;;;;;;;10.80;81.80;;;;;;5070885;28;20393;-91
2023/03/09 02:10:13;;;;;;;;;;;10.80;81.80;;;;;;5070887;28;19949;-91
2023/03/09 02:12:39;;;;;;;;;;;10.90;81.80;;;;;;5072902;28;19946;-90
2023/03/09 02:15:05;;;;;;;;;;;10.90;81.80;;;;;;5072047;28;19944;-90
2023/03/09 02:17:31;;;;;;;;;;;10.90;81.40;;;;;;5071779;28;19949;-90
2023/03/09 02:20:04;;;;;;;;;;;10.90;81.30;;;;;;5069934;28;20412;-90
2023/03/09 02:22:31;;;;;;;;;;;10.90;81.40;;;;;;5072945;28;20382;-90
2023/03/09 02:25:12;;;;;;;;;;;10.90;81.30;;;;;;5071722;28;20397;-90
2023/03/09 02:27:38;;;;;;;;;;;10.90;81.30;;;;;;5071693;28;19996;-90
2023/03/09 02:30:04;;;;;;;;;;;11.00;81.00;;;;;;5070926;28;19946;-90
2023/03/09 02:32:30;;;;;;;;;;;10.90;81.10;;;;;;5071889;28;20422;-90
2023/03/09 02:34:56;;;;;;;;;;;10.90;81.20;;;;;;5071678;28;20467;-90
2023/03/09 02:37:21;;;;;;;;;;;10.90;81.70;;;;;;5072576;28;20030;-90
2023/03/09 02:39:49;;;;;;;;;;;10.90;81.70;;;;;;5071438;28;19960;-90
2023/03/09 02:42:16;;;;;;;;;;;10.90;81.70;;;;;;5071316;28;19956;-90
2023/03/09 02:44:41;;;;;;;;;;;10.80;82.10;;;;;;5071190;28;20392;-90
2023/03/09 02:47:15;;;;;;;;;;;10.80;82.40;;;;;;5071717;28;19948;-90
2023/03/09 02:49:40;;;;;;;;;;;10.80;82.30;;;;;;5069705;28;20482;-90
2023/03/09 02:52:06;;;;;;;;;;;10.80;82.40;;;;;;5071468;28;19950;-90
2023/03/09 02:54:31;;;;;;;;;;;10.80;82.50;;;;;;5071719;28;19976;-91
2023/03/09 02:56:57;;;;;;;;;;;10.80;82.90;;;;;;5072573;28;19936;-91
2023/03/09 02:59:22;;;;;;;;;;;10.70;83.50;;;;;;5071056;28;19983;-90
2023/03/09 03:01:48;;;;;;;;;;;10.70;83.40;;;;;;5073662;28;19953;-90
2023/03/09 03:04:13;;;;;;;;;;;10.70;83.50;;;;;;5075015;28;19978;-90
2023/03/09 03:06:39;;;;;;;;;;;10.70;83.40;;;;;;5073132;28;19950;-90
2023/03/09 03:09:05;;;;;;;;;;;10.60;83.90;;;;;;5073145;28;19957;-90
2023/03/09 03:11:31;;;;;;;;;;;10.60;84.20;;;;;;5076084;28;20044;-90
2023/03/09 03:13:56;;;;;;;;;;;10.60;83.80;;;;;;5075154;28;19940;-90
2023/03/09 03:16:22;;;;;;;;;;;10.60;83.60;;;;;;5075651;28;19969;-90
2023/03/09 03:18:47;;;;;;;;;;;10.60;83.60;;;;;;5073970;28;19953;-90
2023/03/09 03:21:13;;;;;;;;;;;10.60;83.70;;;;;;5073876;28;20421;-90
2023/03/09 03:23:38;;;;;;;;;;;10.60;83.80;;;;;;5074792;28;20034;-90
2023/03/09 03:26:05;;;;;;;;;;;10.60;84.10;;;;;;5075591;28;19996;-90
2023/03/09 03:28:30;;;;;;;;;;;10.60;84.90;;;;;;5073886;28;20087;-90
2023/03/09 03:30:56;;;;;;;;;;;10.50;85.50;;;;;;5073835;28;20053;-91
2023/03/09 03:33:21;;;;;;;;;;;10.50;85.50;;;;;;5073059;28;20291;-90
2023/03/09 03:35:47;;;;;;;;;;;10.60;85.50;;;;;;5074553;28;20423;-90
2023/03/09 03:38:12;;;;;;;;;;;10.50;85.20;;;;;;5072574;28;19951;-91
2023/03/09 03:40:38;;;;;;;;;;;10.60;85.10;;;;;;5074509;28;20559;-90
2023/03/09 03:43:03;;;;;;;;;;;10.70;84.80;;;;;;5057549;28;20493;-90
2023/03/09 03:45:29;;;;;;;;;;;10.70;84.30;;;;;;5074221;28;19946;-90
2023/03/09 03:47:54;;;;;;;;;;;10.60;84.30;;;;;;5075511;28;19937;-90
2023/03/09 03:50:20;;;;;;;;;;;10.60;84.60;;;;;;5073720;28;19947;-90
2023/03/09 03:52:45;;;;;;;;;;;10.50;84.70;;;;;;5074269;28;20309;-91
2023/03/09 03:55:11;;;;;;;;;;;10.50;85.00;;;;;;5075258;28;20314;-90
2023/03/09 03:57:36;;;;;;;;;;;10.50;84.90;;;;;;5074543;28;20007;-90
2023/03/09 04:00:09;;;;;;;;;;;10.50;84.80;;;;;;5074269;28;19964;-90
2023/03/09 04:02:35;;;;;;;;;;;10.60;84.60;;;;;;5074543;28;19979;-91
2023/03/09 04:05:00;;;;;;;;;;;10.50;84.50;;;;;;5074637;28;20028;-91
2023/03/09 04:07:27;;;;;;;;;;;10.60;84.40;;;;;;5073215;28;19999;-90
2023/03/09 04:09:53;;;;;;;;;;;10.60;84.20;;;;;;5074074;28;19945;-90
2023/03/09 04:12:18;;;;;;;;;;;10.60;84.30;;;;;;5073809;28;20055;-90
2023/03/09 04:14:44;;;;;;;;;;;10.60;84.50;;;;;;5074581;28;20039;-90
2023/03/09 04:17:10;;;;;;;;;;;10.60;84.50;;;;;;5073995;28;19944;-90
2023/03/09 04:19:36;;;;;;;;;;;10.50;84.60;;;;;;5072996;28;20073;-90
2023/03/09 04:22:02;;;;;;;;;;;10.50;84.70;;;;;;5073211;28;20418;-90
2023/03/09 04:24:27;;;;;;;;;;;10.50;84.80;;;;;;5073306;28;19943;-90
2023/03/09 04:26:53;;;;;;;;;;;10.60;84.60;;;;;;5071148;28;20031;-90
2023/03/09 04:29:18;;;;;;;;;;;10.60;84.50;;;;;;5064441;28;20157;-90
2023/03/09 04:31:44;;;;;;;;;;;10.60;84.50;;;;;;5072953;28;19943;-90
2023/03/09 04:34:10;;;;;;;;;;;10.60;84.40;;;;;;5072508;28;19999;-90
2023/03/09 04:36:36;;;;;;;;;;;10.60;84.50;;;;;;5073570;28;20002;-91
2023/03/09 04:39:02;;;;;;;;;;;10.60;84.50;;;;;;5072229;28;19989;-90
2023/03/09 04:41:28;;;;;;;;;;;10.60;84.60;;;;;;5072549;28;20515;-89
2023/03/09 04:43:53;;;;;;;;;;;10.60;84.90;;;;;;5072995;28;20048;-91
2023/03/09 04:46:18;;;;;;;;;;;10.60;84.90;;;;;;5073460;28;19950;-91
2023/03/09 04:48:44;;;;;;;;;;;10.60;84.90;;;;;;5073384;28;19942;-91
2023/03/09 04:51:10;;;;;;;;;;;10.60;84.70;;;;;;5073112;28;20297;-90
2023/03/09 04:53:35;;;;;;;;;;;10.50;85.00;;;;;;5071035;28;19964;-90
2023/03/09 04:56:01;;;;;;;;;;;10.40;85.10;;;;;;5070835;28;19954;-90
2023/03/09 04:58:26;;;;;;;;;;;10.40;85.30;;;;;;5074125;28;19937;-91
2023/03/09 05:00:52;;;;;;;;;;;10.40;85.50;;;;;;5072866;28;20017;-90
2023/03/09 05:03:17;;;;;;;;;;;10.40;85.30;;;;;;5072620;28;20067;-90
2023/03/09 05:05:43;;;;;;;;;;;10.40;85.00;;;;;;5071892;28;20373;-90
2023/03/09 05:08:08;;;;;;;;;;;10.40;85.30;;;;;;5072209;28;19948;-90
2023/03/09 05:10:34;;;;;;;;;;;10.40;85.50;;;;;;5072837;28;20014;-90
2023/03/09 05:12:59;;;;;;;;;;;10.40;85.50;;;;;;5071904;28;20022;-90
2023/03/09 05:15:25;;;;;;;;;;;10.40;85.40;;;;;;5070939;28;19949;-90
2023/03/09 05:17:50;;;;;;;;;;;10.40;85.50;;;;;;5071910;28;19947;-90
2023/03/09 05:20:16;;;;;;;;;;;10.40;85.40;;;;;;5072478;28;19965;-91
2023/03/09 05:22:42;;;;;;;;;;;10.40;85.30;;;;;;5073536;28;19990;-90
2023/03/09 05:25:08;;;;;;;;;;;10.40;85.20;;;;;;5071580;28;20312;-90
2023/03/09 05:27:33;;;;;;;;;;;10.40;85.30;;;;;;5073381;28;20335;-90
2023/03/09 05:29:59;;;;;;;;;;;10.40;85.50;;;;;;5072616;28;19946;-90
2023/03/09 05:32:24;;;;;;;;;;;10.30;85.80;;;;;;5072576;28;19994;-89
2023/03/09 05:34:50;;;;;;;;;;;10.10;86.30;;;;;;5073198;28;19950;-89
2023/03/09 05:37:15;;;;;;;;;;;9.90;87.10;;;;;;5071586;28;19947;-89
2023/03/09 05:39:41;;;;;;;;;;;9.90;87.20;;;;;;5053159;28;20448;-90
2023/03/09 05:42:06;;;;;;;;;;;9.90;87.50;;;;;;5072409;28;19951;-89
2023/03/09 05:44:32;;;;;;;;;;;9.90;87.70;;;;;;5072640;28;20297;-89
2023/03/09 05:46:58;;;;;;;;;;;9.80;87.70;;;;;;5054106;28;19957;-89
2023/03/09 05:49:27;;;;;;;;;;;9.80;87.70;;;;;;5072086;28;19939;-89
2023/03/09 05:51:53;;;;;;;;;;;9.80;87.70;;;;;;5072198;28;20005;-89
2023/03/09 05:54:18;;;;;;;;;;;9.80;87.70;;;;;;5071996;28;19954;-89
2023/03/09 05:56:44;;;;;;;;;;;9.80;87.80;;;;;;5071570;28;20396;-89
2023/03/09 05:59:10;;;;;;;;;;;9.80;88.00;;;;;;5071079;28;20359;-89
2023/03/09 06:01:35;;;;;;;;;;;9.80;88.20;;;;;;5068330;28;19948;-88
2023/03/09 06:04:01;;;;;;;;;;;9.80;88.10;;;;;;5066487;28;19977;-89
2023/03/09 06:06:26;;;;;;;;;;;9.80;88.10;;;;;;5063494;28;19951;-89
2023/03/09 06:08:52;;;;;;;;;;;9.80;88.20;;;;;;5063720;28;19941;-89
2023/03/09 06:11:18;;;;;;;;;;;9.80;88.30;;;;;;5062450;28;19972;-88
2023/03/09 06:13:43;;;;;;;;;;;9.80;88.40;;;;;;5047900;28;20357;-88
2023/03/09 06:16:12;;;;;;;;;;;9.90;88.30;;;;;;5066299;28;19955;-89
2023/03/09 06:18:37;;;;;;;;;;;9.80;87.90;;;;;;5071823;28;19942;-88
2023/03/09 06:21:04;;;;;;;;;;;9.90;87.80;;;;;;5071807;28;19969;-89
2023/03/09 06:23:30;;;;;;;;;;;9.90;88.50;;;;;;5066793;28;19948;-89
2023/03/09 06:25:56;;;;;;;;;;;9.90;88.80;;;;;;5071034;28;19974;-89
2023/03/09 06:28:22;;;;;;;;;;;9.90;88.90;;;;;;5066789;28;20037;-88
2023/03/09 06:30:48;;;;;;;;;;;9.90;88.50;;;;;;5048038;28;19948;-88
2023/03/09 06:33:13;;;;;;;;;;;9.90;88.30;;;;;;5065208;28;19940;-89
2023/03/09 06:35:40;;;;;;;;;;;9.90;88.10;;;;;;5067048;28;19949;-88
2023/03/09 06:38:05;;;;;;;;;;;10.00;87.70;;;;;;5074121;28;19945;-88
2023/03/09 06:40:31;;;;;;;;;;;10.10;87.20;;;;;;5067576;28;20336;-89
2023/03/09 06:42:56;;;;;;;;;;;10.20;86.70;;;;;;5074169;28;20000;-89
2023/03/09 06:45:22;;;;;;;;;;;10.20;86.30;;;;;;5069729;28;19994;-89
2023/03/09 06:47:48;;;;;;;;;;;10.40;86.40;;;;;;5074679;28;20431;-88
2023/03/09 06:50:14;;;;;;;;;;;10.40;86.60;;;;;;5071470;28;19951;-88
2023/03/09 06:52:40;;;;;;;;;;;10.40;86.60;;;;;;5057717;28;20492;-89
2023/03/09 06:55:05;;;;;;;;;;;10.40;86.20;;;;;;5075117;28;19972;-89
2023/03/09 06:57:31;;;;;;;;;;;10.50;86.20;;;;;;5054563;28;21075;-88
2023/03/09 06:59:57;;;;;;;;;;;10.60;85.70;;;;;;5069041;28;19962;-88
2023/03/09 07:02:22;;;;;;;;;;;10.70;86.20;;;;;;5070935;28;19946;-88
2023/03/09 07:04:48;;;;;;;;;;;10.70;86.10;;;;;;5110287;23;19980;-89
2023/03/09 07:07:15;;;;;;;;;;;10.80;85.40;;;;;;5102899;28;19943;-89
2023/03/09 07:09:41;;;;;;;;;;;10.80;85.10;;;;;;5101168;28;20430;-89
2023/03/09 07:12:06;;;;;;;;;;;10.80;85.30;;;;;;5083022;28;19944;-89
2023/03/09 07:14:32;;;;;;;;;;;10.90;85.30;;;;;;5104753;28;19997;-89
2023/03/09 07:16:57;;;;;;;;;;;10.90;85.00;;;;;;5101443;28;19943;-89
2023/03/09 07:19:23;;;;;;;;;;;10.90;84.90;;;;;;5104290;28;19937;-89
2023/03/09 07:21:49;;;;;;;;;;;11.00;85.00;;;;;;5102512;28;19945;-89
2023/03/09 07:24:15;;;;;;;;;;;11.10;84.50;;;;;;5101937;28;19940;-89
2023/03/09 07:26:41;;;;;;;;;;;11.10;84.40;;;;;;5101416;28;19948;-88
2023/03/09 07:29:07;;;;;;;;;;;11.00;84.30;;;;;;5102119;28;19943;-89
2023/03/09 07:31:33;;;;;;;;;;;11.00;84.50;;;;;;5105199;28;19948;-89
2023/03/09 07:33:59;;;;;;;;;;;11.10;84.60;;;;;;5093835;28;19966;-89
2023/03/09 07:36:25;;;;;;;;;;;11.10;84.40;;;;;;5101115;28;20276;-89
2023/03/09 07:38:50;;;;;;;;;;;11.10;84.40;;;;;;5099399;28;20009;-88
2023/03/09 07:41:16;;;;;;;;;;;11.10;84.40;;;;;;5108605;27;19955;-89
2023/03/09 07:43:43;;;;;;;;;;;11.30;84.50;;;;;;5106263;27;20364;-89
2023/03/09 07:46:17;;;;;;;;;;;11.50;84.00;;;;;;5085518;28;19971;-89
2023/03/09 07:48:42;;;;;;;;;;;11.80;82.80;;;;;;5100886;28;19955;-88
2023/03/09 07:51:08;;;;;;;;;;;11.90;81.00;;;;;;5105377;28;19951;-89
2023/03/09 07:53:35;;;;;;;;;;;12.00;80.60;;;;;;5090304;28;19960;-89
2023/03/09 07:56:03;;;;;;;;;;;11.90;80.20;;;;;;5090632;28;19944;-88
2023/03/09 07:58:32;;;;;;;;;;;11.90;80.30;;;;;;5085441;28;19973;-88
2023/03/09 08:00:57;;;;;;;;;;;11.80;81.00;;;;;;5084501;28;20449;-89
2023/03/09 08:03:23;;;;;;;;;;;11.80;81.10;;;;;;5079598;28;20041;-89
2023/03/09 08:05:55;;;;;;;;;;;11.90;81.40;;;;;;5069878;28;20029;-89
2023/03/09 08:08:23;;;;;;;;;;;12.00;81.10;;;;;;5063071;28;20005;-89
2023/03/09 08:10:50;;;;;;;;;;;12.10;80.90;;;;;;5065556;28;19945;-89
2023/03/09 08:13:15;;;;;;;;;;;12.20;80.70;;;;;;5065467;28;20088;-89
2023/03/09 08:15:41;;;;;;;;;;;12.40;80.50;;;;;;5069674;28;20116;-89
2023/03/09 08:18:07;;;;;;;;;;;12.60;79.60;;;;;;5065385;28;20035;-89
2023/03/09 08:20:32;;;;;;;;;;;12.60;79.20;;;;;;5071707;28;20125;-88
2023/03/09 08:22:58;;;;;;;;;;;12.70;78.90;;;;;;5072728;28;19951;-89
2023/03/09 08:25:24;;;;;;;;;;;12.80;79.30;;;;;;5072251;28;19947;-88
2023/03/09 08:27:49;;;;;;;;;;;13.00;78.40;;;;;;5066601;28;19954;-88
2023/03/09 08:30:16;;;;;;;;;;;13.00;78.40;;;;;;5070046;28;19946;-88
2023/03/09 08:32:42;;;;;;;;;;;12.90;78.00;;;;;;5067336;28;19941;-88
2023/03/09 08:35:08;;;;;;;;;;;12.90;78.30;;;;;;5064091;28;20119;-88
2023/03/09 08:37:33;;;;;;;;;;;12.90;78.90;;;;;;5068272;28;19942;-88
2023/03/09 08:39:59;;;;;;;;;;;12.90;79.20;;;;;;5066038;28;19958;-89
2023/03/09 08:42:24;;;;;;;;;;;12.90;79.40;;;;;;5068071;28;20397;-89
2023/03/09 08:44:50;;;;;;;;;;;12.90;79.40;;;;;;5066509;28;19946;-89
2023/03/09 08:47:15;;;;;;;;;;;13.10;78.90;;;;;;5067904;28;19940;-88
2023/03/09 08:49:41;;;;;;;;;;;13.30;77.90;;;;;;5059274;28;20300;-90
2023/03/09 08:52:07;;;;;;;;;;;13.40;77.70;;;;;;5063980;28;19943;-89
2023/03/09 08:54:33;;;;;;;;;;;13.70;76.50;;;;;;5065914;28;19944;-89
2023/03/09 08:56:58;;;;;;;;;;;13.80;75.80;;;;;;5066154;28;20048;-89
2023/03/09 08:59:24;;;;;;;;;;;14.00;74.90;;;;;;5065000;28;20423;-88
2023/03/09 09:01:49;;;;;;;;;;;14.00;73.40;;;;;;5069677;28;19952;-88
2023/03/09 09:04:15;;;;;;;;;;;13.90;73.30;;;;;;5063861;28;19978;-89
2023/03/09 09:06:40;;;;;;;;;;;13.80;73.50;;;;;;5068319;28;19952;-89
2023/03/09 09:09:06;;;;;;;;;;;13.80;73.20;;;;;;5064890;28;19959;-89
2023/03/09 09:11:32;;;;;;;;;;;13.70;73.50;;;;;;5062972;28;20301;-89
2023/03/09 09:13:58;;;;;;;;;;;13.80;74.10;;;;;;5066035;28;19945;-89
2023/03/09 09:16:27;;;;;;;;;;;13.90;74.60;;;;;;5070069;28;19951;-89
2023/03/09 09:18:53;;;;;;;;;;;14.00;74.70;;;;;;5065494;28;19974;-89
2023/03/09 09:21:19;;;;;;;;;;;14.10;75.20;;;;;;5066856;28;20102;-90
2023/03/09 09:23:44;;;;;;;;;;;14.20;74.40;;;;;;5064019;28;19943;-89
2023/03/09 09:26:13;;;;;;;;;;;14.40;73.80;;;;;;5064476;28;19943;-88
2023/03/09 09:28:38;;;;;;;;;;;14.40;72.50;;;;;;5067375;28;20020;-89
2023/03/09 09:31:04;;;;;;;;;;;14.40;72.40;;;;;;5058694;28;19999;-90
2023/03/09 09:33:31;;;;;;;;;;;14.40;72.20;;;;;;5059586;28;19949;-90
2023/03/09 09:36:00;;;;;;;;;;;14.50;72.30;;;;;;5061502;28;20031;-90
2023/03/09 09:38:27;;;;;;;;;;;14.70;70.50;;;;;;5063807;28;20402;-88
2023/03/09 09:40:54;;;;;;;;;;;14.80;69.20;;;;;;5063234;28;19977;-89
2023/03/09 09:43:21;;;;;;;;;;;14.60;69.90;;;;;;5066565;28;19947;-88
2023/03/09 09:45:47;;;;;;;;;;;14.50;70.60;;;;;;5063949;28;19942;-89
2023/03/09 09:48:17;;;;;;;;;;;14.40;70.90;;;;;;5062297;28;20504;-89
2023/03/09 09:50:52;;;;;;;;;;;14.40;71.80;;;;;;5056634;28;19943;-89
2023/03/09 09:53:27;;;;;;;;;;;14.40;71.30;;;;;;5064311;28;19966;-90
2023/03/09 09:55:53;;;;;;;;;;;14.50;71.60;;;;;;5065451;28;20023;-89
2023/03/09 09:58:37;;;;;;;;;;;14.60;71.70;;;;;;5060339;28;19990;-89
2023/03/09 10:01:12;;;;;;;;;;;14.80;70.90;;;;;;5059386;28;19953;-90
2023/03/09 10:03:41;;;;;;;;;;;15.10;69.40;;;;;;5061278;28;19975;-89
2023/03/09 10:06:09;;;;;;;;;;;15.30;68.70;;;;;;5063314;28;20026;-90
2023/03/09 10:08:43;;;;;;;;;;;15.50;69.60;;;;;;5058939;28;19941;-90
2023/03/09 10:11:12;;;;;;;;;;;15.70;67.80;;;;;;5061390;28;19991;-88
2023/03/09 10:13:45;;;;;;;;;;;15.60;67.70;;;;;;5059326;28;20468;-88
2023/03/09 10:16:22;;;;;;;;;;;15.30;68.50;;;;;;5063892;28;19958;-88
2023/03/09 10:18:51;;;;;;;;;;;15.20;68.80;;;;;;5065282;28;19946;-88
2023/03/09 10:21:25;;;;;;;;;;;15.00;69.50;;;;;;5065138;28;19941;-88
2023/03/09 10:23:52;;;;;;;;;;;15.20;69.70;;;;;;5061562;28;19941;-89
2023/03/09 10:26:24;;;;;;;;;;;15.30;69.90;;;;;;5064317;28;20034;-89
2023/03/09 10:28:51;;;;;;;;;;;15.40;69.40;;;;;;5070435;28;19949;-89
2023/03/09 10:31:19;;;;;;;;;;;15.60;69.40;;;;;;5065842;28;19943;-89
2023/03/09 10:33:48;;;;;;;;;;;15.90;68.30;;;;;;5068459;28;19978;-90
2023/03/09 10:36:30;;;;;;;;;;;16.10;68.10;;;;;;5067615;28;19949;-89
2023/03/09 10:39:01;;;;;;;;;;;16.30;66.70;;;;;;5064450;28;20628;-89
2023/03/09 10:41:27;;;;;;;;;;;16.50;64.80;;;;;;5067024;28;20057;-90
2023/03/09 10:43:55;;;;;;;;;;;16.50;65.30;;;;;;5062927;28;19947;-90
2023/03/09 10:46:21;;;;;;;;;;;16.60;64.60;;;;;;5059388;28;19953;-88
2023/03/09 10:48:48;;;;;;;;;;;16.60;65.00;;;;;;5061266;28;19949;-89
2023/03/09 10:51:46;;;;;;;;;;;16.40;65.00;;;;;;5062182;28;19951;-88
2023/03/09 10:54:17;;;;;;;;;;;16.30;66.40;;;;;;5011488;28;19958;-88
2023/03/09 10:56:44;;;;;;;;;;;16.20;65.90;;;;;;5062770;28;19949;-88
2023/03/09 10:59:14;;;;;;;;;;;16.30;66.80;;;;;;5062822;28;19944;-88
2023/03/09 11:01:44;;;;;;;;;;;16.20;66.60;;;;;;5065308;28;20419;-88
2023/03/09 11:04:21;;;;;;;;;;;16.50;65.30;;;;;;5062713;28;20113;-89
2023/03/09 11:06:57;;;;;;;;;;;16.80;64.30;;;;;;5063248;28;19942;-89
2023/03/09 11:09:32;;;;;;;;;;;16.90;64.00;;;;;;5069632;28;20041;-89
2023/03/09 11:12:12;;;;;;;;;;;17.20;64.40;;;;;;5067559;28;19945;-89
2023/03/09 11:14:46;;;;;;;;;;;17.40;63.50;;;;;;5071721;28;19946;-89
2023/03/09 11:17:30;;;;;;;;;;;17.60;63.30;;;;;;5072052;28;19935;-89
2023/03/09 11:20:23;;;;;;;;;;;17.60;62.80;;;;;;5072292;28;19963;-89
2023/03/09 11:22:54;;;;;;;;;;;17.70;62.90;;;;;;5036389;28;19949;-89
2023/03/09 11:25:29;;;;;;;;;;;17.70;62.40;;;;;;5037862;28;19958;-90
2023/03/09 11:27:59;;;;;;;;;;;17.80;63.80;;;;;;5055800;28;19962;-89
2023/03/09 11:30:27;;;;;;;;;;;17.80;64.10;;;;;;5055795;28;19980;-88
2023/03/09 11:32:53;;;;;;;;;;;17.90;63.40;;;;;;5063002;28;19995;-89
2023/03/09 11:35:19;;;;;;;;;;;17.90;63.40;;;;;;5075773;28;20446;-89
2023/03/09 11:38:00;;;;;;;;;;;18.10;63.40;;;;;;5075676;28;19937;-89
2023/03/09 11:40:28;;;;;;;;;;;18.50;62.90;;;;;;5074518;28;20467;-89
2023/03/09 11:42:59;;;;;;;;;;;18.80;61.70;;;;;;5055518;28;20030;-89
2023/03/09 11:45:28;;;;;;;;;;;18.90;60.20;;;;;;5055389;28;19941;-89
2023/03/09 11:47:55;;;;;;;;;;;19.30;59.70;;;;;;5059186;28;20373;-89
2023/03/09 11:50:25;;;;;;;;;;;19.60;59.20;;;;;;5075485;28;20006;-90
2023/03/09 11:52:54;;;;;;;;;;;20.00;58.20;;;;;;5075137;28;19957;-90
2023/03/09 11:55:22;;;;;;;;;;;20.40;55.50;;;;;;5075420;28;19980;-89
2023/03/09 11:57:50;;;;;;;;;;;20.60;55.30;;;;;;5054062;28;20311;-89
2023/03/09 12:00:20;;;;;;;;;;;20.70;54.80;;;;;;5055406;28;19964;-89
2023/03/09 12:02:55;;;;;;;;;;;20.80;53.30;;;;;;5055811;28;19950;-90
2023/03/09 12:05:22;;;;;;;;;;;21.00;53.50;;;;;;5074888;28;19955;-90
2023/03/09 12:07:54;;;;;;;;;;;21.20;54.00;;;;;;5086305;28;20369;-90
2023/03/09 12:10:28;;;;;;;;;;;21.20;53.80;;;;;;5082911;28;20031;-90
2023/03/09 12:12:58;;;;;;;;;;;21.20;54.00;;;;;;5093099;28;19943;-88
2023/03/09 12:15:35;;;;;;;;;;;20.70;54.80;;;;;;5093338;28;19989;-89
2023/03/09 12:18:02;;;;;;;;;;;20.50;55.40;;;;;;5083606;28;20408;-89
2023/03/09 12:20:41;;;;;;;;;;;20.60;55.40;;;;;;5074667;28;20088;-90
2023/03/09 12:23:25;;;;;;;;;;;20.60;54.90;;;;;;5084320;28;19976;-90
2023/03/09 12:25:56;;;;;;;;;;;20.80;54.10;;;;;;5076472;28;19952;-90
2023/03/09 12:28:22;;;;;;;;;;;21.20;53.70;;;;;;5077785;28;19991;-90
2023/03/09 12:30:52;;;;;;;;;;;21.50;52.00;;;;;;5085567;28;20314;-90
2023/03/09 12:33:37;;;;;;;;;;;21.10;52.70;;;;;;5087207;28;19941;-90
2023/03/09 12:36:03;;;;;;;;;;;21.30;52.90;;;;;;5077913;28;19970;-89
2023/03/09 12:38:29;;;;;;;;;;;21.40;53.90;;;;;;5086657;28;20412;-89
2023/03/09 12:40:54;;;;;;;;;;;21.70;53.10;;;;;;5084976;28;20508;-90
2023/03/09 12:43:21;;;;;;;;;;;22.20;51.60;;;;;;5089945;28;19948;-90
2023/03/09 12:45:48;;;;;;;;;;;22.90;50.00;;;;;;5087182;28;20035;-90
2023/03/09 12:48:22;;;;;;;;;;;23.20;48.90;;;;;;5085623;28;19954;-90
2023/03/09 12:50:53;;;;;;;;;;;24.00;47.60;;;;;;5082938;28;19946;-90
2023/03/09 12:53:22;;;;;;;;;;;24.50;44.10;;;;;;5088173;28;19973;-90
2023/03/09 12:55:49;;;;;;;;;;;24.60;44.50;;;;;;5084110;28;19940;-89
2023/03/09 12:58:17;;;;;;;;;;;24.30;44.80;;;;;;5083486;28;20392;-90
2023/03/09 13:00:49;;;;;;;;;;;24.20;45.70;;;;;;5083089;28;19961;-90
2023/03/09 13:03:16;;;;;;;;;;;24.00;45.80;;;;;;5080477;28;19969;-90
2023/03/09 13:05:43;;;;;;;;;;;23.40;47.10;;;;;;5064499;28;20012;-90
2023/03/09 13:08:20;;;;;;;;;;;23.20;47.00;;;;;;5066181;28;19937;-89
2023/03/09 13:10:46;;;;;;;;;;;22.80;49.10;;;;;;5064096;28;19951;-90
2023/03/09 13:13:26;;;;;;;;;;;22.50;49.00;;;;;;5070327;28;19950;-89
2023/03/09 13:16:12;;;;;;;;;;;22.80;49.60;;;;;;5063199;28;19938;-90
2023/03/09 13:18:37;;;;;;;;;;;23.30;48.10;;;;;;5062819;28;19994;-90
2023/03/09 13:21:21;;;;;;;;;;;23.80;47.00;;;;;;5062839;28;20126;-90
2023/03/09 13:23:47;;;;;;;;;;;23.90;46.30;;;;;;5060218;28;19955;-90
2023/03/09 13:26:14;;;;;;;;;;;24.10;46.20;;;;;;5064328;28;20490;-91
2023/03/09 13:28:46;;;;;;;;;;;24.40;45.10;;;;;;5066143;28;19955;-91
2023/03/09 13:31:23;;;;;;;;;;;24.70;45.30;;;;;;5067026;28;20318;-91
2023/03/09 13:33:49;;;;;;;;;;;25.20;44.10;;;;;;5065703;28;19940;-91
2023/03/09 13:36:19;;;;;;;;;;;24.90;43.70;;;;;;5069128;28;20401;-90
2023/03/09 13:38:46;;;;;;;;;;;23.60;46.40;;;;;;5052981;28;19956;-91
2023/03/09 13:41:17;;;;;;;;;;;22.50;48.70;;;;;;5062335;28;19955;-91
2023/03/09 13:43:46;;;;;;;;;;;21.30;51.50;;;;;;5061704;28;20043;-90
2023/03/09 13:46:11;;;;;;;;;;;20.70;53.70;;;;;;5058245;28;19949;-91
2023/03/09 13:48:45;;;;;;;;;;;20.80;54.90;;;;;;5061869;28;19945;-90
2023/03/09 13:51:28;;;;;;;;;;;20.70;54.70;;;;;;5063852;28;20044;-91
2023/03/09 13:53:53;;;;;;;;;;;20.80;55.10;;;;;;5059994;28;19941;-90
2023/03/09 13:56:19;;;;;;;;;;;20.70;55.40;;;;;;5067416;28;19943;-90
2023/03/09 13:58:46;;;;;;;;;;;20.80;55.40;;;;;;5058177;28;19955;-91
2023/03/09 14:01:27;;;;;;;;;;;21.00;54.50;;;;;;5048181;28;19958;-90
2023/03/09 14:03:54;;;;;;;;;;;21.40;53.80;;;;;;5061530;28;20117;-91
2023/03/09 14:06:28;;;;;;;;;;;21.80;53.00;;;;;;5063948;28;19946;-90
2023/03/09 14:08:54;;;;;;;;;;;22.20;52.30;;;;;;5067628;28;19966;-91
2023/03/09 14:11:28;;;;;;;;;;;22.80;50.90;;;;;;5066872;28;19997;-91
2023/03/09 14:13:57;;;;;;;;;;;23.60;49.00;;;;;;5062149;28;19942;-91
2023/03/09 14:16:23;;;;;;;;;;;23.80;47.60;;;;;;5064851;28;19949;-90
2023/03/09 14:18:52;;;;;;;;;;;24.00;47.10;;;;;;5060413;28;20000;-90
2023/03/09 14:21:44;;;;;;;;;;;23.90;47.30;;;;;;5062259;28;19964;-90